Time;durP1;ratioP1;P1;durP2;ratioP2;P2;SDS_P1;SDS_P2;PMS_P1;PMS_P2;Temp;Humidity;BMP_temperature;BMP_pressure;BME280_temperature;BME280_humidity;BME280_pressure;Samples;Min_cycle;Max_cycle;Signal;HPM_P1;HPM_P2
2022/05/04 00:01:55;;;;;;;7.90;5.15;;;11.80;99.90;;;;;;4992935;28;20504;-79
2022/05/04 00:04:22;;;;;;;7.95;4.90;;;11.60;99.90;;;;;;4993081;28;20511;-79
2022/05/04 00:06:49;;;;;;;6.22;4.55;;;11.70;99.90;;;;;;4993114;28;20078;-80
2022/05/04 00:09:16;;;;;;;6.18;4.00;;;11.90;99.90;;;;;;4992982;28;20447;-80
2022/05/04 00:11:44;;;;;;;6.43;4.10;;;12.30;99.90;;;;;;4992897;28;20141;-79
2022/05/04 00:14:13;;;;;;;6.10;3.92;;;12.20;99.90;;;;;;4992975;28;20046;-78
2022/05/04 00:16:40;;;;;;;5.93;4.05;;;12.20;99.90;;;;;;4992908;28;20050;-78
2022/05/04 00:19:07;;;;;;;6.90;4.18;;;12.30;99.90;;;;;;4993009;28;20566;-81
2022/05/04 00:21:34;;;;;;;6.03;4.20;;;12.20;99.90;;;;;;4992933;28;20096;-79
2022/05/04 00:24:01;;;;;;;6.63;4.63;;;12.20;99.90;;;;;;4992906;28;20081;-80
2022/05/04 00:26:28;;;;;;;7.13;4.28;;;12.20;99.90;;;;;;4993006;28;20121;-80
2022/05/04 00:28:55;;;;;;;6.47;4.70;;;12.20;99.90;;;;;;4993051;28;20085;-79
2022/05/04 00:31:24;;;;;;;6.70;4.47;;;12.10;99.90;;;;;;4992837;28;20082;-80
2022/05/04 00:33:51;;;;;;;7.38;4.40;;;12.00;99.90;;;;;;4992824;28;20137;-80
2022/05/04 00:36:20;;;;;;;7.63;4.43;;;12.20;99.90;;;;;;4992894;28;20077;-80
2022/05/04 00:38:47;;;;;;;7.30;4.57;;;12.30;99.90;;;;;;4992962;28;20050;-78
2022/05/04 00:41:14;;;;;;;7.10;3.90;;;12.30;99.90;;;;;;4992919;28;20110;-78
2022/05/04 00:43:41;;;;;;;5.72;4.00;;;12.40;99.90;;;;;;4992900;28;20100;-79
2022/05/04 00:46:08;;;;;;;6.70;4.07;;;12.40;99.90;;;;;;4992908;28;20141;-78
2022/05/04 00:48:37;;;;;;;5.43;4.10;;;12.30;99.90;;;;;;4992674;28;20484;-81
2022/05/04 00:51:04;;;;;;;5.85;4.00;;;12.20;99.90;;;;;;4992564;28;20137;-81
2022/05/04 00:53:31;;;;;;;6.60;4.22;;;12.20;99.90;;;;;;4992718;28;20140;-80
2022/05/04 00:56:00;;;;;;;6.13;4.18;;;12.20;99.90;;;;;;4992731;28;20092;-78
2022/05/04 01:01:12;;;;;;;;;;;12.40;99.90;;;;;;4993319;28;20061;-80
2022/05/04 01:03:41;;;;;;;6.55;4.20;;;12.40;99.90;;;;;;4992651;28;20016;-80
2022/05/04 01:06:08;;;;;;;6.82;4.47;;;12.40;99.90;;;;;;4992652;28;20082;-80
2022/05/04 01:08:35;;;;;;;6.82;4.80;;;12.30;99.90;;;;;;4992468;28;20094;-80
2022/05/04 01:11:02;;;;;;;6.07;4.55;;;12.10;99.90;;;;;;4992598;28;20078;-77
2022/05/04 01:13:29;;;;;;;6.43;4.45;;;11.90;99.90;;;;;;4992593;28;20146;-79
2022/05/04 01:15:56;;;;;;;7.22;4.30;;;12.00;99.90;;;;;;4992405;28;20085;-81
2022/05/04 01:18:23;;;;;;;7.22;4.38;;;12.10;99.90;;;;;;4992290;28;20523;-80
2022/05/04 01:20:52;;;;;;;6.78;4.20;;;12.10;99.90;;;;;;4992531;28;20050;-79
2022/05/04 01:23:20;;;;;;;6.45;4.50;;;12.10;99.90;;;;;;4993699;28;20115;-81
2022/05/04 01:25:47;;;;;;;7.95;5.00;;;12.20;99.90;;;;;;4994672;28;20084;-80
2022/05/04 01:28:15;;;;;;;6.30;4.03;;;12.20;99.90;;;;;;4995544;28;20125;-80
2022/05/04 01:30:42;;;;;;;6.32;4.50;;;12.20;99.90;;;;;;4995966;28;20090;-79
2022/05/04 01:33:09;;;;;;;7.38;4.25;;;12.20;99.90;;;;;;4996101;28;20050;-80
2022/05/04 01:35:36;;;;;;;6.72;4.28;;;12.20;99.90;;;;;;4995646;28;20085;-79
2022/05/04 01:38:03;;;;;;;5.82;3.78;;;12.30;99.90;;;;;;4996010;28;20100;-78
2022/05/04 01:40:32;;;;;;;5.53;3.75;;;12.30;99.90;;;;;;4995661;28;20133;-79
2022/05/04 01:42:59;;;;;;;5.85;3.97;;;12.30;99.90;;;;;;4995565;28;20477;-81
2022/05/04 01:45:26;;;;;;;5.65;3.92;;;12.30;99.90;;;;;;4995708;28;20047;-80
2022/05/04 01:47:53;;;;;;;6.03;3.78;;;12.20;99.90;;;;;;4995711;28;20085;-80
2022/05/04 01:50:20;;;;;;;5.93;4.22;;;12.30;99.90;;;;;;4995462;28;20540;-82
2022/05/04 01:52:47;;;;;;;5.53;3.72;;;12.20;99.90;;;;;;4995543;28;20134;-79
2022/05/04 01:55:16;;;;;;;8.10;4.18;;;12.20;99.90;;;;;;4995749;28;20483;-81
2022/05/04 01:57:44;;;;;;;7.05;3.95;;;12.00;99.90;;;;;;4995289;28;20043;-81
2022/05/04 02:00:12;;;;;;;8.65;3.97;;;11.80;99.90;;;;;;4995492;28;20133;-81
2022/05/04 02:02:39;;;;;;;5.93;4.10;;;11.80;99.90;;;;;;5012729;28;20109;-78
2022/05/04 02:05:08;;;;;;;7.30;4.55;;;11.80;99.90;;;;;;5015102;28;20518;-79
2022/05/04 02:07:36;;;;;;;6.40;3.90;;;11.80;99.90;;;;;;5014878;28;20096;-80
2022/05/04 02:10:04;;;;;;;6.28;4.00;;;11.80;99.90;;;;;;5014699;28;20132;-80
2022/05/04 02:12:31;;;;;;;6.30;4.20;;;11.70;99.90;;;;;;5014466;28;20222;-81
2022/05/04 02:15:00;;;;;;;7.30;4.32;;;11.80;99.90;;;;;;5014561;28;20057;-80
2022/05/04 02:17:28;;;;;;;6.53;4.75;;;11.80;99.90;;;;;;5014731;28;20093;-80
2022/05/04 02:19:55;;;;;;;6.50;4.55;;;11.60;99.90;;;;;;5014546;28;20140;-80
2022/05/04 02:22:22;;;;;;;7.80;5.20;;;11.50;99.90;;;;;;5014955;28;20100;-80
2022/05/04 02:24:49;;;;;;;7.50;5.10;;;11.60;99.90;;;;;;5014743;28;20078;-79
2022/05/04 02:27:16;;;;;;;6.40;4.57;;;11.60;99.90;;;;;;5014526;28;20415;-78
2022/05/04 02:29:43;;;;;;;7.47;4.57;;;11.80;99.90;;;;;;5014553;28;20133;-81
2022/05/04 02:32:12;;;;;;;8.52;4.72;;;11.70;99.90;;;;;;5014335;28;20136;-80
2022/05/04 02:37:54;;;;;;;5.93;4.25;;;11.70;99.90;;;;;;5014266;28;20092;-80
2022/05/04 02:40:12;;;;;;;8.45;5.10;;;11.70;99.90;;;;;;5013631;28;20471;-80
2022/05/04 02:42:40;;;;;;;7.18;5.15;;;11.60;99.90;;;;;;5014273;28;20081;-80
2022/05/04 02:45:08;;;;;;;7.70;4.85;;;11.60;99.90;;;;;;5014119;28;20085;-79
2022/05/04 02:47:40;;;;;;;7.07;5.07;;;11.60;99.90;;;;;;5013977;28;20125;-80
2022/05/04 02:50:08;;;;;;;7.75;4.80;;;11.60;99.90;;;;;;5014141;28;20053;-79
2022/05/04 02:52:35;;;;;;;7.40;5.10;;;11.70;99.90;;;;;;5014046;28;20551;-78
2022/05/04 02:55:02;;;;;;;7.75;5.57;;;11.60;99.90;;;;;;5013871;28;20145;-80
2022/05/04 02:57:30;;;;;;;8.68;5.90;;;11.50;99.90;;;;;;5013856;28;20454;-80
2022/05/04 02:59:57;;;;;;;7.72;5.68;;;11.50;99.90;;;;;;5013999;28;20474;-81
2022/05/04 03:02:29;;;;;;;8.85;5.85;;;11.40;99.90;;;;;;5013534;28;20092;-81
2022/05/04 03:04:59;;;;;;;7.75;5.60;;;11.30;99.90;;;;;;5013704;28;20050;-79
2022/05/04 03:07:27;;;;;;;8.57;5.32;;;11.20;99.90;;;;;;5013773;28;20145;-79
2022/05/04 03:09:54;;;;;;;7.47;5.35;;;11.20;99.90;;;;;;5013728;28;20269;-81
2022/05/04 03:12:21;;;;;;;8.05;5.45;;;11.20;99.90;;;;;;5013725;28;20092;-80
2022/05/04 03:14:49;;;;;;;11.35;6.78;;;11.40;99.90;;;;;;5013498;28;20132;-80
2022/05/04 03:17:17;;;;;;;7.93;5.82;;;11.40;99.90;;;;;;5013400;28;20081;-78
2022/05/04 03:19:44;;;;;;;9.00;5.40;;;11.30;99.90;;;;;;5013493;28;20176;-80
2022/05/04 03:22:13;;;;;;;7.43;5.38;;;11.40;99.90;;;;;;5013504;28;20085;-80
2022/05/04 03:24:40;;;;;;;9.32;5.55;;;11.40;99.90;;;;;;5013398;28;20112;-79
2022/05/04 03:27:08;;;;;;;8.35;5.20;;;11.40;99.90;;;;;;5013278;28;20492;-78
2022/05/04 03:29:36;;;;;;;7.82;5.22;;;11.40;99.90;;;;;;5013235;28;20084;-78
2022/05/04 03:32:04;;;;;;;7.05;5.00;;;11.40;99.90;;;;;;5013355;28;20142;-79
2022/05/04 03:34:31;;;;;;;7.85;4.80;;;11.60;99.90;;;;;;5013265;28;20049;-80
2022/05/04 03:36:59;;;;;;;7.43;5.40;;;11.60;99.90;;;;;;5013297;28;20115;-81
2022/05/04 03:39:28;;;;;;;8.07;5.32;;;11.60;99.90;;;;;;5013249;28;20403;-79
2022/05/04 03:41:55;;;;;;;7.55;5.30;;;11.60;99.90;;;;;;5012984;28;20074;-79
2022/05/04 03:44:22;;;;;;;6.55;4.63;;;11.60;99.90;;;;;;5013258;28;20139;-80
2022/05/04 03:46:52;;;;;;;6.78;4.65;;;11.60;99.90;;;;;;5013186;28;20466;-80
2022/05/04 03:49:20;;;;;;;9.85;5.60;;;11.60;99.90;;;;;;5012799;28;20472;-80
2022/05/04 03:51:48;;;;;;;7.70;5.32;;;11.60;99.90;;;;;;5012820;28;20538;-81
2022/05/04 03:54:15;;;;;;;8.55;5.25;;;11.50;99.90;;;;;;5012753;28;20127;-79
2022/05/04 03:56:44;;;;;;;8.05;5.38;;;11.50;99.90;;;;;;5012816;28;20133;-82
2022/05/04 03:59:11;;;;;;;7.97;5.68;;;11.50;99.90;;;;;;5013031;28;20096;-80
2022/05/04 04:01:38;;;;;;;8.13;5.72;;;11.50;99.90;;;;;;5012601;28;20134;-80
2022/05/04 04:04:06;;;;;;;7.28;5.50;;;11.40;99.90;;;;;;5012686;28;20065;-80
2022/05/04 04:06:33;;;;;;;7.38;5.40;;;11.40;99.90;;;;;;5012656;28;20092;-80
2022/05/04 04:09:00;;;;;;;6.65;5.00;;;11.50;99.90;;;;;;5012623;28;20133;-79
2022/05/04 04:11:29;;;;;;;9.32;5.05;;;11.50;99.90;;;;;;5012857;28;20099;-79
2022/05/04 04:13:57;;;;;;;8.23;5.10;;;11.50;99.90;;;;;;5012608;28;20058;-81
2022/05/04 04:16:25;;;;;;;7.32;4.60;;;11.60;99.90;;;;;;5012444;28;20137;-79
2022/05/04 04:18:52;;;;;;;6.00;4.00;;;11.60;99.90;;;;;;5012427;28;20495;-80
2022/05/04 04:24:03;;;;;;;6.25;4.22;;;11.60;99.90;;;;;;5012541;28;20111;-78
2022/05/04 04:26:30;;;;;;;6.95;4.22;;;11.60;99.90;;;;;;5012247;28;20140;-80
2022/05/04 04:28:59;;;;;;;7.20;4.28;;;11.60;99.90;;;;;;5012608;28;20128;-81
2022/05/04 04:31:26;;;;;;;7.00;4.53;;;11.40;99.90;;;;;;5012329;28;20061;-82
2022/05/04 04:33:53;;;;;;;6.45;4.68;;;11.40;99.90;;;;;;5012353;28;20562;-81
2022/05/04 04:36:20;;;;;;;6.65;4.13;;;11.50;99.90;;;;;;5012722;28;20089;-79
2022/05/04 04:38:48;;;;;;;6.22;4.18;;;11.60;99.90;;;;;;5012242;28;20468;-80
2022/05/04 04:41:15;;;;;;;8.10;4.32;;;11.70;99.90;;;;;;5012277;28;20046;-81
2022/05/04 04:43:42;;;;;;;5.93;3.92;;;11.70;99.90;;;;;;5012183;28;20141;-80
2022/05/04 04:46:10;;;;;;;5.70;3.60;;;11.80;99.90;;;;;;5012256;28;20136;-79
2022/05/04 04:48:37;;;;;;;6.70;4.10;;;11.80;99.90;;;;;;5012120;28;20141;-80
2022/05/04 04:51:04;;;;;;;6.18;4.13;;;11.70;99.90;;;;;;5012607;28;20454;-81
2022/05/04 04:53:31;;;;;;;8.45;4.07;;;11.60;99.90;;;;;;5012395;28;20124;-80
2022/05/04 04:55:59;;;;;;;6.90;4.22;;;11.60;99.90;;;;;;5012107;28;20050;-80
2022/05/04 04:58:26;;;;;;;6.53;4.07;;;11.30;99.90;;;;;;5012185;28;20145;-81
2022/05/04 05:00:53;;;;;;;6.07;3.50;;;11.40;99.90;;;;;;5006976;28;20046;-81
2022/05/04 05:03:22;;;;;;;6.35;4.10;;;11.50;99.90;;;;;;5015014;28;20137;-82
2022/05/04 05:05:49;;;;;;;7.03;4.40;;;11.50;99.90;;;;;;5015946;28;20125;-81
2022/05/04 05:08:16;;;;;;;6.85;4.43;;;11.40;99.90;;;;;;5016151;28;20124;-81
2022/05/04 05:10:43;;;;;;;7.53;4.03;;;11.30;99.90;;;;;;5016347;28;20514;-77
2022/05/04 05:13:10;;;;;;;7.03;4.43;;;11.30;99.90;;;;;;5017018;28;20133;-80
2022/05/04 05:18:25;;;;;;;5.65;3.92;;;11.40;99.90;;;;;;5015904;28;20638;-78
2022/05/04 05:20:52;;;;;;;5.13;3.83;;;11.60;99.90;;;;;;5015802;28;20136;-80
2022/05/04 05:23:19;;;;;;;8.32;4.40;;;11.70;99.90;;;;;;5015847;28;20136;-80
2022/05/04 05:25:47;;;;;;;7.15;4.65;;;11.70;99.90;;;;;;5015550;28;20050;-80
2022/05/04 05:28:14;;;;;;;6.28;4.00;;;11.50;99.90;;;;;;5015402;28;20136;-80
2022/05/04 05:30:42;;;;;;;6.97;4.47;;;11.60;99.90;;;;;;5015695;28;20467;-81
2022/05/04 05:33:09;;;;;;;6.25;4.30;;;11.70;99.90;;;;;;5015424;28;20415;-80
2022/05/04 05:35:38;;;;;;;5.82;4.15;;;11.70;99.90;;;;;;5015349;28;20141;-79
2022/05/04 05:38:07;;;;;;;6.22;4.10;;;11.70;99.90;;;;;;5015311;28;20511;-78
2022/05/04 05:40:34;;;;;;;6.07;3.85;;;11.70;99.90;;;;;;5015215;28;20052;-80
2022/05/04 05:43:01;;;;;;;6.28;4.13;;;11.80;99.90;;;;;;5015375;28;20129;-81
2022/05/04 05:45:28;;;;;;;6.53;4.13;;;11.90;99.90;;;;;;5015435;28;20073;-79
2022/05/04 05:47:55;;;;;;;6.43;4.07;;;11.90;99.90;;;;;;5015261;28;20050;-78
2022/05/04 05:50:23;;;;;;;6.18;4.03;;;11.90;99.90;;;;;;5015130;28;20081;-81
2022/05/04 05:52:51;;;;;;;6.65;4.38;;;11.80;99.90;;;;;;5015271;28;20097;-79
2022/05/04 05:55:18;;;;;;;6.18;4.00;;;11.70;99.90;;;;;;5014873;28;20088;-81
2022/05/04 05:57:45;;;;;;;7.18;4.32;;;11.80;99.90;;;;;;5015228;28;20297;-81
2022/05/04 06:00:14;;;;;;;7.25;4.97;;;11.90;99.90;;;;;;5015134;28;20125;-79
2022/05/04 06:02:41;;;;;;;6.88;4.22;;;11.90;99.90;;;;;;5000352;28;20133;-79
2022/05/04 06:05:09;;;;;;;6.82;4.05;;;12.00;99.90;;;;;;4995115;28;20137;-80
2022/05/04 06:07:37;;;;;;;8.02;4.15;;;12.10;99.90;;;;;;4994998;28;20145;-79
2022/05/04 06:10:07;;;;;;;6.93;4.13;;;12.20;99.90;;;;;;4995321;28;20047;-81
2022/05/04 06:12:34;;;;;;;5.78;4.30;;;12.10;99.90;;;;;;4995219;28;20457;-80
2022/05/04 06:15:02;;;;;;;5.50;4.28;;;12.10;99.90;;;;;;4995352;28;20167;-81
2022/05/04 06:17:29;;;;;;;5.15;3.58;;;12.30;99.90;;;;;;4995105;28;20050;-80
2022/05/04 06:19:56;;;;;;;5.75;3.88;;;12.30;99.90;;;;;;4994978;28;20054;-81
2022/05/04 06:22:23;;;;;;;6.68;4.20;;;12.40;99.90;;;;;;4994853;28;20121;-78
2022/05/04 06:24:50;;;;;;;6.90;4.32;;;12.20;99.90;;;;;;4995027;28;20472;-80
2022/05/04 06:27:19;;;;;;;8.50;3.97;;;12.20;99.90;;;;;;4995057;28;20453;-78
2022/05/04 06:35:15;;;;;;;6.50;4.40;;;12.30;99.90;;;;;;4994835;28;20061;-79
2022/05/04 06:37:42;;;;;;;5.93;3.70;;;12.30;99.90;;;;;;4994767;28;20129;-78
2022/05/04 06:40:10;;;;;;;7.32;3.88;;;12.40;99.90;;;;;;4994614;28;20093;-78
2022/05/04 06:42:40;;;;;;;6.53;4.18;;;12.40;99.90;;;;;;4995052;28;20078;-77
2022/05/04 06:45:09;;;;;;;5.35;4.05;;;12.50;99.90;;;;;;4994491;28;20082;-81
2022/05/04 06:47:36;;;;;;;6.55;4.32;;;12.60;99.90;;;;;;4994295;28;20125;-78
2022/05/04 06:50:05;;;;;;;5.95;4.25;;;12.50;99.90;;;;;;4994491;28;20404;-81
2022/05/04 06:52:38;;;;;;;7.07;4.15;;;12.60;99.90;;;;;;4994426;28;20046;-79
2022/05/04 06:55:11;;;;;;;6.93;4.32;;;12.50;99.90;;;;;;4994297;28;20058;-81
2022/05/04 06:57:39;;;;;;;7.07;5.20;;;12.50;99.90;;;;;;4994471;28;20054;-80
2022/05/04 07:00:09;;;;;;;7.13;4.70;;;12.50;99.90;;;;;;4994032;28;20569;-79
2022/05/04 07:02:36;;;;;;;8.05;5.00;;;12.50;99.90;;;;;;4994097;28;20133;-79
2022/05/04 07:05:05;;;;;;;9.18;5.45;;;12.50;99.90;;;;;;4994094;28;20133;-80
2022/05/04 07:07:33;;;;;;;9.75;5.80;;;12.50;99.90;;;;;;4994023;28;20129;-80
2022/05/04 07:10:00;;;;;;;8.73;5.55;;;12.50;99.90;;;;;;4994096;28;20137;-80
2022/05/04 07:12:30;;;;;;;9.20;5.20;;;12.60;99.90;;;;;;4993758;28;20420;-81
2022/05/04 07:15:01;;;;;;;7.05;4.72;;;12.70;99.90;;;;;;4993949;28;20046;-79
2022/05/04 07:17:28;;;;;;;6.97;4.53;;;13.00;99.90;;;;;;4993913;28;20133;-79
2022/05/04 07:19:56;;;;;;;7.32;4.30;;;13.20;99.90;;;;;;4993853;28;20133;-78
2022/05/04 07:22:23;;;;;;;8.00;4.75;;;13.40;99.90;;;;;;4993793;28;20058;-78
2022/05/04 07:24:51;;;;;;;7.95;4.43;;;13.40;99.90;;;;;;4992926;28;20047;-79
2022/05/04 07:27:18;;;;;;;6.80;4.57;;;13.50;99.90;;;;;;4993574;28;20137;-78
2022/05/04 07:29:46;;;;;;;7.38;4.40;;;13.50;99.90;;;;;;4993499;28;20215;-79
2022/05/04 07:32:15;;;;;;;7.28;4.03;;;13.60;99.90;;;;;;4993300;28;20050;-79
2022/05/04 07:34:45;;;;;;;7.78;4.03;;;13.50;99.90;;;;;;4993220;28;20078;-80
2022/05/04 07:37:15;;;;;;;7.85;3.97;;;13.60;99.90;;;;;;4993262;28;20054;-81
2022/05/04 07:42:27;;;;;;;;;;;13.80;99.90;;;;;;4993914;28;20057;-78
2022/05/04 07:44:59;;;;;;;4.45;3.13;;;13.70;99.90;;;;;;4993258;28;19925;-80
2022/05/04 07:47:30;;;;;;;5.13;3.50;;;13.90;99.90;;;;;;4993632;28;20072;-78
2022/05/04 07:49:58;;;;;;;6.30;4.05;;;14.00;99.90;;;;;;4993596;28;20149;-77
2022/05/04 07:52:26;;;;;;;6.30;3.90;;;13.80;99.90;;;;;;4993924;28;20531;-81
2022/05/04 07:54:55;;;;;;;5.28;3.20;;;13.70;99.90;;;;;;4994857;28;20056;-78
2022/05/04 07:57:22;;;;;;;5.70;3.60;;;13.90;99.90;;;;;;4995006;28;20112;-81
2022/05/04 08:05:20;;;;;;;7.03;3.83;;;13.70;99.90;;;;;;4993249;28;20478;-79
2022/05/04 08:07:50;;;;;;;6.38;3.30;;;13.80;99.90;;;;;;4993080;28;20046;-78
2022/05/04 08:10:17;;;;;;;7.03;3.53;;;13.80;99.90;;;;;;4992981;28;20138;-81
2022/05/04 08:12:44;;;;;;;4.32;3.05;;;13.60;99.90;;;;;;4992830;28;20137;-77
2022/05/04 08:15:12;;;;;;;4.85;3.20;;;13.70;99.90;;;;;;4993116;28;20078;-79
2022/05/04 08:17:45;;;;;;;5.60;3.15;;;13.60;99.90;;;;;;4992995;28;20066;-79
2022/05/04 08:20:13;;;;;;;3.97;2.75;;;13.70;99.90;;;;;;4993101;28;20085;-80
2022/05/04 08:22:40;;;;;;;4.80;2.78;;;13.60;99.90;;;;;;4992914;28;20057;-79
2022/05/04 08:25:07;;;;;;;5.55;3.30;;;13.80;99.90;;;;;;4992885;28;20554;-78
2022/05/04 08:27:34;;;;;;;5.80;3.17;;;13.90;99.90;;;;;;4992650;28;20464;-79
2022/05/04 08:30:02;;;;;;;5.78;2.85;;;14.00;99.90;;;;;;4992840;28;20133;-79
2022/05/04 08:32:30;;;;;;;6.03;3.30;;;14.00;99.90;;;;;;4992747;28;20578;-78
2022/05/04 08:34:59;;;;;;;5.53;3.47;;;14.00;99.90;;;;;;4992753;28;20051;-79
2022/05/04 08:37:27;;;;;;;5.18;3.38;;;13.80;99.90;;;;;;4994294;28;20050;-78
2022/05/04 08:39:54;;;;;;;6.00;3.55;;;14.10;99.90;;;;;;4996731;28;20043;-81
2022/05/04 08:42:24;;;;;;;6.88;3.58;;;14.30;99.90;;;;;;4997062;28;20058;-79
2022/05/04 08:44:58;;;;;;;6.90;3.40;;;14.30;99.90;;;;;;4996813;28;20141;-79
2022/05/04 08:47:30;;;;;;;4.82;3.08;;;14.40;99.90;;;;;;4996911;28;20042;-79
2022/05/04 08:49:59;;;;;;;5.53;3.30;;;14.60;99.90;;;;;;4996857;28;20074;-79
2022/05/04 08:52:29;;;;;;;5.00;3.20;;;14.60;99.90;;;;;;4996526;28;20137;-79
2022/05/04 08:54:58;;;;;;;5.45;3.08;;;14.90;99.90;;;;;;4996583;28;20054;-79
2022/05/04 08:57:25;;;;;;;5.30;3.20;;;15.00;99.90;;;;;;4996565;28;20230;-78
2022/05/04 08:59:52;;;;;;;4.28;2.95;;;15.10;99.90;;;;;;4996614;28;20134;-80
2022/05/04 09:02:19;;;;;;;6.55;3.17;;;15.10;99.90;;;;;;4996320;28;20128;-79
2022/05/04 09:04:46;;;;;;;5.07;3.00;;;15.10;99.90;;;;;;4988373;28;20097;-78
2022/05/04 09:07:26;;;;;;;5.25;2.90;;;15.20;99.90;;;;;;4996336;28;20494;-77
2022/05/04 09:09:56;;;;;;;6.60;3.08;;;15.20;99.90;;;;;;4996264;28;20104;-80
2022/05/04 09:12:24;;;;;;;4.47;2.70;;;15.10;99.90;;;;;;4996369;28;20054;-77
2022/05/04 09:14:52;;;;;;;6.63;2.97;;;15.10;99.90;;;;;;4996065;28;20590;-78
2022/05/04 09:17:23;;;;;;;4.75;3.17;;;15.10;99.90;;;;;;4995831;28;20514;-80
2022/05/04 09:22:37;;;;;;;4.88;2.60;;;15.40;99.90;;;;;;4994487;28;20105;-79
2022/05/04 09:25:09;;;;;;;6.03;3.10;;;15.50;99.90;;;;;;4996014;28;20047;-79
2022/05/04 09:27:39;;;;;;;4.78;2.80;;;15.50;99.90;;;;;;4995664;28;20559;-79
2022/05/04 09:30:07;;;;;;;5.30;2.78;;;15.50;99.90;;;;;;4996022;28;20050;-77
2022/05/04 09:32:39;;;;;;;5.00;2.60;;;15.50;99.90;;;;;;4996069;28;20274;-79
2022/05/04 09:35:13;;;;;;;4.60;2.60;;;15.70;99.90;;;;;;4995828;28;20082;-79
2022/05/04 09:46:05;;;;;;;5.85;3.10;;;15.90;99.90;;;;;;4995648;28;20073;-77
2022/05/04 09:48:34;;;;;;;4.47;2.38;;;15.90;99.90;;;;;;4994931;28;20057;-78
2022/05/04 09:51:07;;;;;;;5.65;3.28;;;16.10;99.60;;;;;;4995464;28;20377;-77
2022/05/04 09:53:37;;;;;;;4.40;2.70;;;16.10;99.40;;;;;;4995772;28;20050;-79
2022/05/04 09:56:05;;;;;;;5.60;3.63;;;16.30;99.90;;;;;;4995479;28;20166;-80
2022/05/04 09:58:32;;;;;;;5.90;3.35;;;16.30;99.80;;;;;;4995409;28;20078;-77
2022/05/04 10:01:00;;;;;;;5.53;2.90;;;16.40;99.60;;;;;;4995028;28;20054;-78
2022/05/04 10:03:28;;;;;;;4.50;2.78;;;16.40;99.50;;;;;;4995305;28;20492;-78
2022/05/04 10:05:56;;;;;;;5.60;3.20;;;16.50;99.90;;;;;;4995176;28;20051;-78
2022/05/04 10:08:23;;;;;;;8.30;3.08;;;16.60;99.50;;;;;;4995120;28;20053;-79
2022/05/04 10:10:57;;;;;;;5.65;3.28;;;16.60;99.30;;;;;;4995364;28;20051;-79
2022/05/04 10:13:24;;;;;;;4.68;2.80;;;16.80;99.90;;;;;;4995176;28;20089;-80
2022/05/04 10:15:56;;;;;;;6.65;3.83;;;16.90;99.70;;;;;;4995219;28;20488;-79
2022/05/04 10:18:28;;;;;;;5.38;3.60;;;16.90;99.10;;;;;;4995163;28;20078;-78
2022/05/04 10:21:05;;;;;;;5.97;3.60;;;16.80;98.50;;;;;;4995004;28;20050;-79
2022/05/04 10:23:40;;;;;;;5.15;3.40;;;17.00;99.40;;;;;;4995172;28;20069;-78
2022/05/04 10:26:13;;;;;;;6.45;3.47;;;17.00;98.50;;;;;;4994949;28;20101;-77
2022/05/04 10:30:29;;;;;;;4.75;3.47;;;17.00;98.80;;;;;;4995166;28;20116;-79
2022/05/04 10:31:33;;;;;;;6.55;3.25;;;17.10;98.60;;;;;;4994908;28;20042;-79
2022/05/04 10:34:04;;;;;;;5.90;2.95;;;17.30;98.90;;;;;;4995301;28;20046;-78
2022/05/04 10:36:39;;;;;;;9.60;3.78;;;17.40;98.40;;;;;;4995069;28;20047;-80
2022/05/04 10:39:07;;;;;;;5.22;3.75;;;17.60;97.90;;;;;;5004747;28;20073;-80
2022/05/04 10:41:37;;;;;;;6.40;3.70;;;17.50;98.10;;;;;;4998602;28;20408;-78
2022/05/04 10:44:05;;;;;;;5.78;3.80;;;17.50;97.70;;;;;;4995953;28;20133;-78
2022/05/04 10:46:33;;;;;;;6.93;3.85;;;17.50;97.50;;;;;;4994902;28;20092;-79
2022/05/04 10:49:03;;;;;;;5.93;3.28;;;17.50;97.40;;;;;;4994839;28;20455;-78
2022/05/04 10:51:33;;;;;;;6.75;4.07;;;17.50;97.40;;;;;;4994591;28;20086;-77
2022/05/04 10:54:02;;;;;;;6.68;4.18;;;17.40;97.10;;;;;;4994400;28;20427;-80
2022/05/04 10:56:37;;;;;;;6.30;4.28;;;17.30;97.40;;;;;;4994346;28;20140;-79
2022/05/04 10:59:07;;;;;;;5.05;3.60;;;17.30;96.70;;;;;;4993701;28;20046;-77
2022/05/04 11:01:36;;;;;;;7.18;3.72;;;17.40;97.20;;;;;;4993585;28;20504;-80
2022/05/04 11:04:18;;;;;;;5.00;3.40;;;17.40;97.10;;;;;;4994244;28;20130;-78
2022/05/04 11:06:55;;;;;;;6.38;4.10;;;17.40;97.20;;;;;;4993973;28;20543;-77
2022/05/04 11:09:25;;;;;;;6.70;3.83;;;17.50;97.40;;;;;;4993900;28;20054;-78
2022/05/04 11:11:56;;;;;;;5.57;3.58;;;17.50;98.10;;;;;;4993936;28;20050;-80
2022/05/04 11:14:24;;;;;;;4.90;3.08;;;17.40;98.00;;;;;;4993981;28;20855;-79
2022/05/04 11:16:54;;;;;;;5.55;3.40;;;17.50;97.70;;;;;;4994056;28;20130;-78
2022/05/04 11:19:24;;;;;;;5.15;3.22;;;17.50;97.70;;;;;;4993972;28;20081;-77
2022/05/04 11:21:51;;;;;;;6.40;3.70;;;17.50;98.00;;;;;;4993936;28;20078;-77
2022/05/04 11:24:19;;;;;;;6.32;4.00;;;17.50;98.20;;;;;;4993697;28;20460;-79
2022/05/04 11:26:48;;;;;;;6.50;3.75;;;17.60;98.90;;;;;;4993880;28;20133;-80
2022/05/04 11:29:19;;;;;;;5.95;3.47;;;17.60;98.60;;;;;;4993881;28;20468;-79
2022/05/04 11:31:52;;;;;;;6.72;3.65;;;17.60;98.10;;;;;;4985731;28;20050;-78
2022/05/04 11:34:20;;;;;;;5.35;3.20;;;17.60;98.20;;;;;;4993842;28;20055;-76
2022/05/04 11:36:49;;;;;;;5.65;3.20;;;17.80;98.30;;;;;;4993553;28;20452;-80
2022/05/04 11:39:18;;;;;;;4.85;3.08;;;17.80;98.00;;;;;;4993860;28;20507;-77
2022/05/04 11:41:46;;;;;;;6.35;3.28;;;17.80;98.30;;;;;;4993504;28;20054;-79
2022/05/04 11:44:17;;;;;;;5.25;3.20;;;17.90;97.70;;;;;;4993488;28;20143;-78
2022/05/04 11:46:47;;;;;;;6.28;3.20;;;18.00;98.00;;;;;;4993854;28;20050;-78
2022/05/04 11:49:14;;;;;;;6.85;4.38;;;18.20;98.00;;;;;;4995222;28;20057;-80
2022/05/04 11:51:42;;;;;;;6.70;4.43;;;18.30;97.80;;;;;;5001156;28;20087;-78
2022/05/04 11:54:10;;;;;;;5.07;3.22;;;18.20;98.10;;;;;;4996833;28;20451;-79
2022/05/04 11:56:38;;;;;;;5.47;3.50;;;18.10;98.20;;;;;;4997351;28;20133;-79
2022/05/04 11:59:07;;;;;;;8.48;5.30;;;18.20;98.50;;;;;;4997508;28;20074;-80
2022/05/04 12:01:36;;;;;;;6.70;4.07;;;18.20;97.90;;;;;;4995562;28;20064;-77
2022/05/04 12:04:06;;;;;;;6.85;4.45;;;18.30;97.70;;;;;;4993088;28;20079;-77
2022/05/04 12:06:35;;;;;;;4.97;3.30;;;18.30;98.00;;;;;;4993081;28;20146;-79
2022/05/04 12:09:03;;;;;;;5.78;3.40;;;18.50;97.70;;;;;;4993118;28;20051;-80
2022/05/04 12:11:32;;;;;;;6.43;3.80;;;18.60;97.30;;;;;;4992811;28;20082;-78
2022/05/04 12:14:00;;;;;;;6.78;3.53;;;18.70;97.60;;;;;;4992930;28;20089;-80
2022/05/04 12:16:29;;;;;;;6.00;3.40;;;18.60;97.90;;;;;;4992823;28;20165;-78
2022/05/04 12:18:58;;;;;;;4.88;3.40;;;18.60;97.20;;;;;;4992964;28;20046;-78
2022/05/04 12:21:25;;;;;;;5.28;2.90;;;18.80;97.10;;;;;;4992708;28;20488;-79
2022/05/04 12:23:55;;;;;;;5.93;3.83;;;18.80;96.30;;;;;;4992761;28;20093;-78
2022/05/04 12:26:24;;;;;;;6.53;3.17;;;18.60;95.90;;;;;;4992839;28;20142;-78
2022/05/04 12:34:23;;;;;;;6.35;4.22;;;18.00;96.30;;;;;;4951984;28;20046;-79
2022/05/04 12:36:52;;;;;;;6.60;4.20;;;18.00;96.10;;;;;;4992848;28;20177;-77
2022/05/04 12:39:21;;;;;;;6.18;3.95;;;17.80;96.60;;;;;;4992745;28;20054;-78
2022/05/04 12:41:49;;;;;;;6.32;3.83;;;17.80;96.40;;;;;;4992994;28;20073;-79
2022/05/04 12:44:17;;;;;;;5.38;3.83;;;17.80;96.20;;;;;;4992593;28;20496;-80
2022/05/04 12:46:52;;;;;;;6.53;3.78;;;17.60;95.80;;;;;;4992556;28;20548;-80
2022/05/04 12:49:22;;;;;;;6.35;3.20;;;17.70;95.80;;;;;;4992777;28;20133;-79
2022/05/04 12:51:51;;;;;;;5.47;3.33;;;17.70;96.20;;;;;;4992644;28;20117;-78
2022/05/04 12:54:18;;;;;;;4.47;2.67;;;17.70;96.80;;;;;;4992968;28;20050;-79
2022/05/04 12:56:47;;;;;;;5.53;2.75;;;17.80;97.00;;;;;;4992931;28;20090;-78
2022/05/04 12:59:15;;;;;;;5.85;2.90;;;17.90;96.30;;;;;;4992581;28;20051;-78
2022/05/04 13:01:42;;;;;;;5.93;3.05;;;17.90;95.90;;;;;;4992192;28;20141;-80
2022/05/04 13:04:09;;;;;;;6.40;3.40;;;17.90;95.70;;;;;;4992558;28;20042;-78
2022/05/04 13:06:37;;;;;;;6.68;2.90;;;17.70;95.80;;;;;;4992939;28;20407;-79
2022/05/04 13:09:05;;;;;;;5.00;2.53;;;17.40;95.90;;;;;;4992673;28;20081;-78
2022/05/04 13:11:35;;;;;;;4.80;2.28;;;17.40;96.60;;;;;;4992983;28;20140;-79
2022/05/04 13:14:03;;;;;;;6.05;2.47;;;17.50;96.30;;;;;;4992565;28;20042;-80
2022/05/04 13:16:31;;;;;;;3.75;2.20;;;17.50;96.40;;;;;;4992799;28;20074;-79
2022/05/04 13:19:01;;;;;;;4.07;2.10;;;17.40;96.40;;;;;;4994452;28;20531;-79
2022/05/04 13:21:29;;;;;;;3.42;1.90;;;17.30;95.10;;;;;;4995560;28;20077;-79
2022/05/04 13:23:57;;;;;;;3.83;2.30;;;17.20;95.00;;;;;;4999345;28;20077;-80
2022/05/04 13:26:24;;;;;;;4.20;2.40;;;17.10;95.80;;;;;;4997848;28;20050;-80
2022/05/04 13:28:52;;;;;;;3.85;2.20;;;17.00;96.10;;;;;;4996903;28;20480;-80
2022/05/04 13:31:21;;;;;;;5.45;2.05;;;17.10;95.80;;;;;;4996167;28;20109;-80
2022/05/04 13:33:48;;;;;;;3.40;1.90;;;17.10;94.70;;;;;;4995798;28;20050;-80
2022/05/04 13:36:16;;;;;;;4.22;1.92;;;17.10;93.80;;;;;;4996179;28;20062;-78